Hlavní strana
METAR-TAF:

METAR-TAF

Letiště :

Berlevåg, Norsko

zeměpisná šířka: 70-52N, zeměpisná délka: 029-02E, výška: 1 m

Aktuální stav počasí

Zpráva byla vytvořena před 41 minutami, v 05:50 UTC
Západojihozápadní vítr 16 kt
Teplota 6°C
Vlhkost vzduchu 87%
Tlak 1016 hPa
Viditelnost 10 km a více
Skoro jasno ve výšce 1400 ft
Polojasno ve výšce 2600 ft
Oblačno až skoro zataženo ve výšce 3200 ft
slabé dešťové přeháňky

METAR: ENBV 290550Z 25016KT 9999 -SHRA FEW014 SCT026 BKN032 06/04 Q1016

Čas: 08:31 (06:31 UTC)


TAF: chybějící

Stav a předpovědi počasí z více než 4 000 letišť (zprávy METAR a TAF).

Červené a žluté tečky na mapě představují dostupné meteorologické stanice.

Když kurzor umístíte na tečku, zobrazí se název stanice.

Pak kliknutím zobrazíte stav a předpověď počasí.

Chcete-li změnit mapu, kliknutím na zelené tlačítko se znaménkem +mapu přiblížíte, kliknutím na zelené tlačítko se znaménkem – mapu oddálíte a kliknutím na zelené šipky přejdete na sousední mapy.


METAR-TAF: